sensor_id;sensor_type;location;lat;lon;timestamp;P1;durP1;ratioP1;P2;durP2;ratioP2
33022;SDS011;19390;51.460;5.710;2023-05-29T00:01:12;17.88;;;9.60;;
33022;SDS011;19390;51.460;5.710;2023-05-29T00:03:38;16.38;;;8.43;;
33022;SDS011;19390;51.460;5.710;2023-05-29T00:06:03;20.65;;;9.43;;
33022;SDS011;19390;51.460;5.710;2023-05-29T00:08:31;16.98;;;8.82;;
33022;SDS011;19390;51.460;5.710;2023-05-29T00:10:56;19.52;;;9.65;;
33022;SDS011;19390;51.460;5.710;2023-05-29T00:13:22;16.30;;;8.40;;
33022;SDS011;19390;51.460;5.710;2023-05-29T00:15:48;19.80;;;9.10;;
33022;SDS011;19390;51.460;5.710;2023-05-29T00:18:14;17.40;;;8.70;;
33022;SDS011;19390;51.460;5.710;2023-05-29T00:20:39;19.67;;;8.50;;
33022;SDS011;19390;51.460;5.710;2023-05-29T00:23:05;17.95;;;8.10;;
33022;SDS011;19390;51.460;5.710;2023-05-29T00:25:31;18.48;;;8.20;;
33022;SDS011;19390;51.460;5.710;2023-05-29T00:27:57;16.38;;;7.30;;
33022;SDS011;19390;51.460;5.710;2023-05-29T00:30:23;16.52;;;7.78;;
33022;SDS011;19390;51.460;5.710;2023-05-29T00:32:50;19.38;;;7.25;;
33022;SDS011;19390;51.460;5.710;2023-05-29T00:35:17;19.67;;;6.88;;
33022;SDS011;19390;51.460;5.710;2023-05-29T00:37:43;14.80;;;6.25;;
33022;SDS011;19390;51.460;5.710;2023-05-29T00:40:08;20.77;;;6.18;;
33022;SDS011;19390;51.460;5.710;2023-05-29T00:42:35;19.23;;;6.00;;
33022;SDS011;19390;51.460;5.710;2023-05-29T00:45:00;17.95;;;5.70;;
33022;SDS011;19390;51.460;5.710;2023-05-29T00:47:26;18.52;;;5.30;;
33022;SDS011;19390;51.460;5.710;2023-05-29T00:49:53;20.20;;;5.93;;
33022;SDS011;19390;51.460;5.710;2023-05-29T00:52:20;21.08;;;4.70;;
33022;SDS011;19390;51.460;5.710;2023-05-29T00:54:45;22.73;;;5.68;;
33022;SDS011;19390;51.460;5.710;2023-05-29T00:57:12;16.58;;;4.68;;
33022;SDS011;19390;51.460;5.710;2023-05-29T00:59:38;19.30;;;5.57;;
33022;SDS011;19390;51.460;5.710;2023-05-29T01:02:05;18.23;;;5.15;;
33022;SDS011;19390;51.460;5.710;2023-05-29T01:04:31;22.48;;;5.03;;
33022;SDS011;19390;51.460;5.710;2023-05-29T01:06:59;20.23;;;4.53;;
33022;SDS011;19390;51.460;5.710;2023-05-29T01:09:27;19.40;;;4.40;;
33022;SDS011;19390;51.460;5.710;2023-05-29T01:11:59;19.65;;;4.50;;
33022;SDS011;19390;51.460;5.710;2023-05-29T01:28:35;13.38;;;3.90;;
33022;SDS011;19390;51.460;5.710;2023-05-29T01:31:06;17.92;;;3.72;;
33022;SDS011;19390;51.460;5.710;2023-05-29T01:33:32;19.77;;;3.88;;
33022;SDS011;19390;51.460;5.710;2023-05-29T01:35:58;13.68;;;3.45;;
33022;SDS011;19390;51.460;5.710;2023-05-29T01:38:24;18.92;;;4.07;;
33022;SDS011;19390;51.460;5.710;2023-05-29T01:40:50;18.15;;;3.90;;
33022;SDS011;19390;51.460;5.710;2023-05-29T01:43:16;20.38;;;4.07;;
33022;SDS011;19390;51.460;5.710;2023-05-29T01:45:41;15.25;;;4.05;;
33022;SDS011;19390;51.460;5.710;2023-05-29T01:48:08;18.33;;;4.03;;
33022;SDS011;19390;51.460;5.710;2023-05-29T01:50:33;15.38;;;4.32;;
33022;SDS011;19390;51.460;5.710;2023-05-29T01:53:00;15.52;;;4.22;;
33022;SDS011;19390;51.460;5.710;2023-05-29T01:55:26;19.90;;;4.10;;
33022;SDS011;19390;51.460;5.710;2023-05-29T01:57:51;17.98;;;4.57;;
33022;SDS011;19390;51.460;5.710;2023-05-29T02:00:18;19.05;;;4.88;;
33022;SDS011;19390;51.460;5.710;2023-05-29T02:02:44;24.77;;;4.93;;
33022;SDS011;19390;51.460;5.710;2023-05-29T02:05:10;22.33;;;4.93;;
33022;SDS011;19390;51.460;5.710;2023-05-29T02:07:36;16.35;;;3.80;;
33022;SDS011;19390;51.460;5.710;2023-05-29T02:10:02;20.48;;;4.10;;
33022;SDS011;19390;51.460;5.710;2023-05-29T02:12:28;15.77;;;3.58;;
33022;SDS011;19390;51.460;5.710;2023-05-29T02:14:54;20.98;;;3.25;;
33022;SDS011;19390;51.460;5.710;2023-05-29T02:17:20;16.35;;;3.70;;
33022;SDS011;19390;51.460;5.710;2023-05-29T02:19:46;26.38;;;4.65;;
33022;SDS011;19390;51.460;5.710;2023-05-29T02:22:12;20.77;;;4.30;;
33022;SDS011;19390;51.460;5.710;2023-05-29T02:24:37;17.98;;;4.30;;
33022;SDS011;19390;51.460;5.710;2023-05-29T02:27:03;19.65;;;4.25;;
33022;SDS011;19390;51.460;5.710;2023-05-29T02:29:29;19.02;;;3.80;;
33022;SDS011;19390;51.460;5.710;2023-05-29T02:31:54;18.50;;;3.42;;
33022;SDS011;19390;51.460;5.710;2023-05-29T02:34:20;19.75;;;3.78;;
33022;SDS011;19390;51.460;5.710;2023-05-29T02:36:49;16.52;;;3.45;;
33022;SDS011;19390;51.460;5.710;2023-05-29T02:39:16;17.10;;;3.72;;
33022;SDS011;19390;51.460;5.710;2023-05-29T02:41:42;18.55;;;3.55;;
33022;SDS011;19390;51.460;5.710;2023-05-29T02:44:08;17.58;;;3.70;;
33022;SDS011;19390;51.460;5.710;2023-05-29T02:46:33;21.77;;;4.10;;
33022;SDS011;19390;51.460;5.710;2023-05-29T02:48:59;16.70;;;3.80;;
33022;SDS011;19390;51.460;5.710;2023-05-29T02:51:25;24.05;;;3.85;;
33022;SDS011;19390;51.460;5.710;2023-05-29T02:53:50;23.30;;;5.43;;
33022;SDS011;19390;51.460;5.710;2023-05-29T02:56:16;16.15;;;3.53;;
33022;SDS011;19390;51.460;5.710;2023-05-29T02:58:42;22.25;;;3.72;;
33022;SDS011;19390;51.460;5.710;2023-05-29T03:01:07;18.42;;;4.07;;
33022;SDS011;19390;51.460;5.710;2023-05-29T03:03:33;22.10;;;4.28;;
33022;SDS011;19390;51.460;5.710;2023-05-29T03:05:59;17.20;;;3.78;;
33022;SDS011;19390;51.460;5.710;2023-05-29T03:08:25;27.05;;;5.30;;
33022;SDS011;19390;51.460;5.710;2023-05-29T03:10:53;22.38;;;3.67;;
33022;SDS011;19390;51.460;5.710;2023-05-29T03:13:19;22.02;;;4.43;;
33022;SDS011;19390;51.460;5.710;2023-05-29T03:15:44;18.75;;;4.57;;
33022;SDS011;19390;51.460;5.710;2023-05-29T03:18:10;21.05;;;4.65;;
33022;SDS011;19390;51.460;5.710;2023-05-29T03:20:36;20.60;;;3.67;;
33022;SDS011;19390;51.460;5.710;2023-05-29T03:23:02;21.13;;;3.83;;
33022;SDS011;19390;51.460;5.710;2023-05-29T03:25:28;20.80;;;3.85;;
33022;SDS011;19390;51.460;5.710;2023-05-29T03:27:54;22.63;;;4.10;;
33022;SDS011;19390;51.460;5.710;2023-05-29T03:30:20;23.00;;;4.18;;
33022;SDS011;19390;51.460;5.710;2023-05-29T03:32:46;24.40;;;3.67;;
33022;SDS011;19390;51.460;5.710;2023-05-29T03:35:11;21.83;;;4.68;;
33022;SDS011;19390;51.460;5.710;2023-05-29T03:37:37;24.83;;;4.85;;
33022;SDS011;19390;51.460;5.710;2023-05-29T03:40:03;27.70;;;4.93;;
33022;SDS011;19390;51.460;5.710;2023-05-29T03:42:29;19.13;;;4.63;;
33022;SDS011;19390;51.460;5.710;2023-05-29T03:44:56;18.60;;;3.70;;
33022;SDS011;19390;51.460;5.710;2023-05-29T03:47:22;21.00;;;4.70;;
33022;SDS011;19390;51.460;5.710;2023-05-29T03:49:47;24.05;;;4.30;;
33022;SDS011;19390;51.460;5.710;2023-05-29T03:52:13;22.92;;;4.15;;
33022;SDS011;19390;51.460;5.710;2023-05-29T03:54:38;25.40;;;5.25;;
33022;SDS011;19390;51.460;5.710;2023-05-29T03:57:04;26.92;;;3.92;;
33022;SDS011;19390;51.460;5.710;2023-05-29T03:59:31;20.10;;;5.00;;
33022;SDS011;19390;51.460;5.710;2023-05-29T04:01:57;29.23;;;4.85;;
33022;SDS011;19390;51.460;5.710;2023-05-29T04:04:23;23.85;;;4.28;;
33022;SDS011;19390;51.460;5.710;2023-05-29T04:06:49;22.67;;;4.03;;
33022;SDS011;19390;51.460;5.710;2023-05-29T04:09:14;26.85;;;5.20;;
33022;SDS011;19390;51.460;5.710;2023-05-29T04:11:40;28.73;;;5.10;;
33022;SDS011;19390;51.460;5.710;2023-05-29T04:14:06;26.17;;;4.18;;
33022;SDS011;19390;51.460;5.710;2023-05-29T04:16:32;23.15;;;4.07;;
33022;SDS011;19390;51.460;5.710;2023-05-29T04:18:58;27.20;;;4.97;;
33022;SDS011;19390;51.460;5.710;2023-05-29T04:21:23;31.67;;;5.40;;
33022;SDS011;19390;51.460;5.710;2023-05-29T04:23:49;24.55;;;4.22;;
33022;SDS011;19390;51.460;5.710;2023-05-29T04:26:14;18.75;;;4.20;;
33022;SDS011;19390;51.460;5.710;2023-05-29T04:28:40;25.00;;;4.45;;
33022;SDS011;19390;51.460;5.710;2023-05-29T04:31:07;21.92;;;4.28;;
33022;SDS011;19390;51.460;5.710;2023-05-29T04:33:33;18.02;;;3.83;;
33022;SDS011;19390;51.460;5.710;2023-05-29T04:36:02;19.08;;;4.03;;
33022;SDS011;19390;51.460;5.710;2023-05-29T04:38:28;20.35;;;4.03;;
33022;SDS011;19390;51.460;5.710;2023-05-29T04:40:56;23.55;;;4.50;;
33022;SDS011;19390;51.460;5.710;2023-05-29T04:43:23;26.33;;;4.10;;
33022;SDS011;19390;51.460;5.710;2023-05-29T04:45:51;20.08;;;4.40;;
33022;SDS011;19390;51.460;5.710;2023-05-29T04:48:17;24.70;;;3.80;;
33022;SDS011;19390;51.460;5.710;2023-05-29T04:50:43;22.42;;;4.78;;
33022;SDS011;19390;51.460;5.710;2023-05-29T04:53:09;21.73;;;4.03;;
33022;SDS011;19390;51.460;5.710;2023-05-29T04:55:35;17.10;;;4.05;;
33022;SDS011;19390;51.460;5.710;2023-05-29T04:58:01;16.35;;;4.18;;
33022;SDS011;19390;51.460;5.710;2023-05-29T05:00:27;17.02;;;3.75;;
33022;SDS011;19390;51.460;5.710;2023-05-29T05:02:53;24.08;;;4.18;;
33022;SDS011;19390;51.460;5.710;2023-05-29T05:05:18;23.80;;;3.92;;
33022;SDS011;19390;51.460;5.710;2023-05-29T05:07:45;26.25;;;5.00;;
33022;SDS011;19390;51.460;5.710;2023-05-29T05:10:10;18.60;;;4.20;;
33022;SDS011;19390;51.460;5.710;2023-05-29T05:12:36;23.38;;;3.78;;
33022;SDS011;19390;51.460;5.710;2023-05-29T05:15:02;17.40;;;3.78;;
33022;SDS011;19390;51.460;5.710;2023-05-29T05:17:28;20.77;;;3.60;;
33022;SDS011;19390;51.460;5.710;2023-05-29T05:19:53;21.90;;;3.65;;
33022;SDS011;19390;51.460;5.710;2023-05-29T05:22:19;18.77;;;3.78;;
33022;SDS011;19390;51.460;5.710;2023-05-29T05:24:45;20.17;;;4.00;;
33022;SDS011;19390;51.460;5.710;2023-05-29T05:27:11;16.98;;;3.90;;
33022;SDS011;19390;51.460;5.710;2023-05-29T05:29:36;17.60;;;3.38;;
33022;SDS011;19390;51.460;5.710;2023-05-29T05:32:02;14.15;;;3.05;;
33022;SDS011;19390;51.460;5.710;2023-05-29T05:34:28;20.80;;;3.55;;
33022;SDS011;19390;51.460;5.710;2023-05-29T05:36:53;18.23;;;3.97;;
33022;SDS011;19390;51.460;5.710;2023-05-29T05:39:19;19.98;;;3.15;;
33022;SDS011;19390;51.460;5.710;2023-05-29T05:41:44;20.38;;;3.72;;
33022;SDS011;19390;51.460;5.710;2023-05-29T05:44:10;18.05;;;3.63;;
33022;SDS011;19390;51.460;5.710;2023-05-29T05:46:36;15.75;;;3.58;;
33022;SDS011;19390;51.460;5.710;2023-05-29T05:49:02;16.75;;;3.58;;
33022;SDS011;19390;51.460;5.710;2023-05-29T05:51:27;21.30;;;3.88;;
33022;SDS011;19390;51.460;5.710;2023-05-29T05:53:53;21.63;;;3.58;;
33022;SDS011;19390;51.460;5.710;2023-05-29T05:56:19;22.08;;;3.15;;
33022;SDS011;19390;51.460;5.710;2023-05-29T05:58:44;21.02;;;3.70;;
33022;SDS011;19390;51.460;5.710;2023-05-29T06:01:10;19.70;;;3.38;;
33022;SDS011;19390;51.460;5.710;2023-05-29T06:03:36;15.88;;;3.38;;
33022;SDS011;19390;51.460;5.710;2023-05-29T06:06:04;19.08;;;3.67;;
33022;SDS011;19390;51.460;5.710;2023-05-29T06:08:30;17.55;;;3.53;;
33022;SDS011;19390;51.460;5.710;2023-05-29T06:10:56;17.02;;;3.70;;
33022;SDS011;19390;51.460;5.710;2023-05-29T06:13:21;16.00;;;3.38;;
33022;SDS011;19390;51.460;5.710;2023-05-29T06:15:47;15.82;;;3.65;;
33022;SDS011;19390;51.460;5.710;2023-05-29T06:18:12;17.15;;;3.53;;
33022;SDS011;19390;51.460;5.710;2023-05-29T06:20:38;19.38;;;3.60;;
33022;SDS011;19390;51.460;5.710;2023-05-29T06:23:04;16.73;;;2.80;;
33022;SDS011;19390;51.460;5.710;2023-05-29T06:25:29;16.08;;;3.03;;
33022;SDS011;19390;51.460;5.710;2023-05-29T06:28:01;19.25;;;3.25;;
33022;SDS011;19390;51.460;5.710;2023-05-29T06:30:27;14.50;;;3.70;;
33022;SDS011;19390;51.460;5.710;2023-05-29T06:32:53;17.45;;;3.90;;
33022;SDS011;19390;51.460;5.710;2023-05-29T06:35:19;17.77;;;3.47;;
33022;SDS011;19390;51.460;5.710;2023-05-29T06:37:45;19.20;;;3.92;;
33022;SDS011;19390;51.460;5.710;2023-05-29T06:40:11;14.40;;;2.70;;
33022;SDS011;19390;51.460;5.710;2023-05-29T06:42:38;11.20;;;2.60;;
33022;SDS011;19390;51.460;5.710;2023-05-29T06:45:03;19.65;;;3.50;;
33022;SDS011;19390;51.460;5.710;2023-05-29T06:47:29;18.23;;;3.15;;
33022;SDS011;19390;51.460;5.710;2023-05-29T06:49:55;22.83;;;3.28;;
33022;SDS011;19390;51.460;5.710;2023-05-29T06:52:20;12.50;;;2.97;;
33022;SDS011;19390;51.460;5.710;2023-05-29T06:54:46;20.08;;;3.22;;
33022;SDS011;19390;51.460;5.710;2023-05-29T06:57:11;14.05;;;2.97;;
33022;SDS011;19390;51.460;5.710;2023-05-29T06:59:37;19.10;;;3.75;;
33022;SDS011;19390;51.460;5.710;2023-05-29T07:02:03;13.05;;;2.92;;
33022;SDS011;19390;51.460;5.710;2023-05-29T07:04:29;13.02;;;2.60;;
33022;SDS011;19390;51.460;5.710;2023-05-29T07:06:55;12.93;;;2.88;;
33022;SDS011;19390;51.460;5.710;2023-05-29T07:09:20;14.73;;;3.13;;
33022;SDS011;19390;51.460;5.710;2023-05-29T07:11:46;13.68;;;2.97;;
33022;SDS011;19390;51.460;5.710;2023-05-29T07:14:11;15.10;;;2.80;;
33022;SDS011;19390;51.460;5.710;2023-05-29T07:16:37;12.27;;;3.20;;
33022;SDS011;19390;51.460;5.710;2023-05-29T07:19:03;13.15;;;3.08;;
33022;SDS011;19390;51.460;5.710;2023-05-29T07:21:29;10.55;;;3.00;;
33022;SDS011;19390;51.460;5.710;2023-05-29T07:23:56;12.75;;;3.33;;
33022;SDS011;19390;51.460;5.710;2023-05-29T07:26:21;12.45;;;2.83;;
33022;SDS011;19390;51.460;5.710;2023-05-29T07:28:48;14.43;;;3.20;;
33022;SDS011;19390;51.460;5.710;2023-05-29T07:31:13;11.88;;;2.67;;
33022;SDS011;19390;51.460;5.710;2023-05-29T07:33:39;10.82;;;2.85;;
33022;SDS011;19390;51.460;5.710;2023-05-29T07:36:06;8.90;;;2.58;;
33022;SDS011;19390;51.460;5.710;2023-05-29T07:38:32;16.73;;;3.30;;
33022;SDS011;19390;51.460;5.710;2023-05-29T07:40:58;10.30;;;2.75;;
33022;SDS011;19390;51.460;5.710;2023-05-29T07:43:23;14.10;;;3.10;;
33022;SDS011;19390;51.460;5.710;2023-05-29T07:45:49;12.50;;;2.78;;
33022;SDS011;19390;51.460;5.710;2023-05-29T07:48:15;12.55;;;2.60;;
33022;SDS011;19390;51.460;5.710;2023-05-29T07:50:40;11.65;;;3.05;;
33022;SDS011;19390;51.460;5.710;2023-05-29T07:53:06;13.07;;;2.80;;
33022;SDS011;19390;51.460;5.710;2023-05-29T07:55:32;13.05;;;2.97;;
33022;SDS011;19390;51.460;5.710;2023-05-29T07:57:59;11.25;;;2.58;;
33022;SDS011;19390;51.460;5.710;2023-05-29T08:00:24;11.65;;;2.90;;
33022;SDS011;19390;51.460;5.710;2023-05-29T08:02:51;10.43;;;2.70;;
33022;SDS011;19390;51.460;5.710;2023-05-29T08:05:16;11.13;;;2.78;;
33022;SDS011;19390;51.460;5.710;2023-05-29T08:07:42;8.18;;;2.50;;
33022;SDS011;19390;51.460;5.710;2023-05-29T08:10:09;8.90;;;2.63;;
33022;SDS011;19390;51.460;5.710;2023-05-29T08:12:35;8.23;;;2.25;;
33022;SDS011;19390;51.460;5.710;2023-05-29T08:15:01;11.20;;;2.95;;
33022;SDS011;19390;51.460;5.710;2023-05-29T08:17:27;12.65;;;3.00;;
33022;SDS011;19390;51.460;5.710;2023-05-29T08:19:53;10.02;;;2.58;;
33022;SDS011;19390;51.460;5.710;2023-05-29T08:22:18;7.88;;;2.28;;
33022;SDS011;19390;51.460;5.710;2023-05-29T08:24:44;9.10;;;3.25;;
33022;SDS011;19390;51.460;5.710;2023-05-29T08:27:10;10.40;;;2.58;;
33022;SDS011;19390;51.460;5.710;2023-05-29T08:29:35;9.52;;;2.55;;
33022;SDS011;19390;51.460;5.710;2023-05-29T08:32:03;10.75;;;3.25;;
33022;SDS011;19390;51.460;5.710;2023-05-29T08:34:29;7.35;;;2.65;;
33022;SDS011;19390;51.460;5.710;2023-05-29T08:36:55;9.02;;;2.50;;
33022;SDS011;19390;51.460;5.710;2023-05-29T08:39:21;9.52;;;2.70;;
33022;SDS011;19390;51.460;5.710;2023-05-29T08:41:59;9.52;;;2.65;;
33022;SDS011;19390;51.460;5.710;2023-05-29T08:44:31;8.60;;;2.25;;
33022;SDS011;19390;51.460;5.710;2023-05-29T08:47:03;17.20;;;3.22;;
33022;SDS011;19390;51.460;5.710;2023-05-29T08:49:41;11.35;;;3.00;;
33022;SDS011;19390;51.460;5.710;2023-05-29T08:52:15;8.80;;;2.30;;
33022;SDS011;19390;51.460;5.710;2023-05-29T08:54:43;8.88;;;2.50;;
33022;SDS011;19390;51.460;5.710;2023-05-29T08:57:13;11.05;;;2.97;;
33022;SDS011;19390;51.460;5.710;2023-05-29T08:59:43;10.75;;;3.03;;
33022;SDS011;19390;51.460;5.710;2023-05-29T09:02:09;8.38;;;2.38;;
33022;SDS011;19390;51.460;5.710;2023-05-29T09:04:36;8.25;;;2.17;;
33022;SDS011;19390;51.460;5.710;2023-05-29T09:07:02;10.15;;;2.97;;
33022;SDS011;19390;51.460;5.710;2023-05-29T09:09:29;10.68;;;2.55;;
33022;SDS011;19390;51.460;5.710;2023-05-29T09:11:56;12.15;;;3.15;;
33022;SDS011;19390;51.460;5.710;2023-05-29T09:14:39;12.88;;;2.58;;
33022;SDS011;19390;51.460;5.710;2023-05-29T09:17:06;11.43;;;2.38;;
33022;SDS011;19390;51.460;5.710;2023-05-29T09:19:33;12.25;;;2.50;;
33022;SDS011;19390;51.460;5.710;2023-05-29T09:22:07;9.93;;;2.67;;
33022;SDS011;19390;51.460;5.710;2023-05-29T09:24:35;12.43;;;2.85;;
33022;SDS011;19390;51.460;5.710;2023-05-29T09:27:03;8.15;;;2.45;;
33022;SDS011;19390;51.460;5.710;2023-05-29T09:29:32;10.13;;;3.55;;
33022;SDS011;19390;51.460;5.710;2023-05-29T09:31:59;11.23;;;2.88;;
33022;SDS011;19390;51.460;5.710;2023-05-29T09:34:26;11.00;;;2.80;;
33022;SDS011;19390;51.460;5.710;2023-05-29T09:36:52;10.40;;;2.70;;
33022;SDS011;19390;51.460;5.710;2023-05-29T09:39:18;8.95;;;2.60;;
33022;SDS011;19390;51.460;5.710;2023-05-29T09:41:44;13.23;;;3.17;;
33022;SDS011;19390;51.460;5.710;2023-05-29T09:44:13;8.63;;;2.28;;
33022;SDS011;19390;51.460;5.710;2023-05-29T09:46:40;11.52;;;2.70;;
33022;SDS011;19390;51.460;5.710;2023-05-29T09:49:10;7.43;;;2.40;;
33022;SDS011;19390;51.460;5.710;2023-05-29T09:51:39;8.13;;;2.35;;
33022;SDS011;19390;51.460;5.710;2023-05-29T09:54:14;8.40;;;2.50;;
33022;SDS011;19390;51.460;5.710;2023-05-29T09:56:43;9.90;;;2.30;;
33022;SDS011;19390;51.460;5.710;2023-05-29T09:59:10;8.45;;;2.22;;
33022;SDS011;19390;51.460;5.710;2023-05-29T10:01:38;9.35;;;2.40;;
33022;SDS011;19390;51.460;5.710;2023-05-29T10:04:07;10.10;;;2.40;;
33022;SDS011;19390;51.460;5.710;2023-05-29T10:06:35;8.98;;;2.20;;
33022;SDS011;19390;51.460;5.710;2023-05-29T10:09:02;10.93;;;2.50;;
33022;SDS011;19390;51.460;5.710;2023-05-29T10:11:28;8.13;;;2.45;;
33022;SDS011;19390;51.460;5.710;2023-05-29T10:13:56;9.23;;;2.40;;
33022;SDS011;19390;51.460;5.710;2023-05-29T10:16:23;9.40;;;2.78;;
33022;SDS011;19390;51.460;5.710;2023-05-29T10:18:55;8.82;;;2.33;;
33022;SDS011;19390;51.460;5.710;2023-05-29T10:21:22;8.52;;;2.25;;
33022;SDS011;19390;51.460;5.710;2023-05-29T10:23:51;12.75;;;3.03;;
33022;SDS011;19390;51.460;5.710;2023-05-29T10:26:21;8.77;;;2.38;;
33022;SDS011;19390;51.460;5.710;2023-05-29T10:28:55;11.85;;;2.75;;
33022;SDS011;19390;51.460;5.710;2023-05-29T10:34:35;9.68;;;2.35;;
33022;SDS011;19390;51.460;5.710;2023-05-29T10:40:24;10.38;;;2.65;;
33022;SDS011;19390;51.460;5.710;2023-05-29T10:42:51;6.07;;;2.13;;
33022;SDS011;19390;51.460;5.710;2023-05-29T10:50:50;8.85;;;2.38;;
33022;SDS011;19390;51.460;5.710;2023-05-29T10:53:26;9.73;;;2.47;;
33022;SDS011;19390;51.460;5.710;2023-05-29T10:55:56;7.72;;;2.08;;
33022;SDS011;19390;51.460;5.710;2023-05-29T10:58:24;7.38;;;2.35;;
33022;SDS011;19390;51.460;5.710;2023-05-29T11:00:51;11.20;;;2.83;;
33022;SDS011;19390;51.460;5.710;2023-05-29T11:03:22;14.70;;;2.50;;
33022;SDS011;19390;51.460;5.710;2023-05-29T11:08:43;9.85;;;2.67;;
33022;SDS011;19390;51.460;5.710;2023-05-29T11:14:03;7.50;;;2.03;;
33022;SDS011;19390;51.460;5.710;2023-05-29T11:18:56;8.95;;;2.30;;
33022;SDS011;19390;51.460;5.710;2023-05-29T11:24:01;6.45;;;2.05;;
33022;SDS011;19390;51.460;5.710;2023-05-29T11:26:28;10.15;;;2.50;;
33022;SDS011;19390;51.460;5.710;2023-05-29T11:29:02;7.47;;;2.55;;
33022;SDS011;19390;51.460;5.710;2023-05-29T11:31:31;9.35;;;2.70;;
33022;SDS011;19390;51.460;5.710;2023-05-29T11:34:00;7.15;;;2.20;;
33022;SDS011;19390;51.460;5.710;2023-05-29T11:36:30;9.70;;;2.70;;
33022;SDS011;19390;51.460;5.710;2023-05-29T11:38:57;10.45;;;2.50;;
33022;SDS011;19390;51.460;5.710;2023-05-29T11:41:23;11.85;;;2.90;;
33022;SDS011;19390;51.460;5.710;2023-05-29T11:44:00;6.90;;;2.03;;
33022;SDS011;19390;51.460;5.710;2023-05-29T11:46:27;7.70;;;2.03;;
33022;SDS011;19390;51.460;5.710;2023-05-29T11:48:56;10.60;;;2.53;;
33022;SDS011;19390;51.460;5.710;2023-05-29T11:51:21;4.82;;;2.13;;
33022;SDS011;19390;51.460;5.710;2023-05-29T11:53:47;7.53;;;2.45;;
33022;SDS011;19390;51.460;5.710;2023-05-29T11:56:13;8.38;;;2.47;;
33022;SDS011;19390;51.460;5.710;2023-05-29T11:58:40;6.60;;;2.25;;
33022;SDS011;19390;51.460;5.710;2023-05-29T12:01:09;8.95;;;2.85;;
33022;SDS011;19390;51.460;5.710;2023-05-29T12:03:39;7.97;;;2.60;;
33022;SDS011;19390;51.460;5.710;2023-05-29T12:06:05;8.60;;;2.10;;
33022;SDS011;19390;51.460;5.710;2023-05-29T12:08:31;8.23;;;2.30;;
33022;SDS011;19390;51.460;5.710;2023-05-29T12:10:57;7.45;;;1.90;;
33022;SDS011;19390;51.460;5.710;2023-05-29T12:13:22;7.40;;;2.22;;
33022;SDS011;19390;51.460;5.710;2023-05-29T12:15:49;7.20;;;2.35;;
33022;SDS011;19390;51.460;5.710;2023-05-29T12:18:17;7.72;;;2.15;;
33022;SDS011;19390;51.460;5.710;2023-05-29T12:20:43;10.75;;;2.70;;
33022;SDS011;19390;51.460;5.710;2023-05-29T12:23:09;6.50;;;2.00;;
33022;SDS011;19390;51.460;5.710;2023-05-29T12:25:37;11.98;;;2.60;;
33022;SDS011;19390;51.460;5.710;2023-05-29T12:28:03;8.38;;;2.20;;
33022;SDS011;19390;51.460;5.710;2023-05-29T12:30:29;9.18;;;2.65;;
33022;SDS011;19390;51.460;5.710;2023-05-29T12:32:55;8.13;;;2.47;;
33022;SDS011;19390;51.460;5.710;2023-05-29T12:35:22;8.18;;;2.30;;
33022;SDS011;19390;51.460;5.710;2023-05-29T12:38:02;6.32;;;2.15;;
33022;SDS011;19390;51.460;5.710;2023-05-29T12:40:33;8.45;;;2.25;;
33022;SDS011;19390;51.460;5.710;2023-05-29T12:43:02;5.20;;;2.13;;
33022;SDS011;19390;51.460;5.710;2023-05-29T12:45:32;8.35;;;2.80;;
33022;SDS011;19390;51.460;5.710;2023-05-29T12:48:03;9.68;;;2.65;;
33022;SDS011;19390;51.460;5.710;2023-05-29T12:50:33;7.57;;;2.10;;
33022;SDS011;19390;51.460;5.710;2023-05-29T12:53:00;8.18;;;2.30;;
33022;SDS011;19390;51.460;5.710;2023-05-29T12:55:27;9.57;;;2.47;;
33022;SDS011;19390;51.460;5.710;2023-05-29T12:57:54;10.10;;;2.60;;
33022;SDS011;19390;51.460;5.710;2023-05-29T13:00:20;10.95;;;2.38;;
33022;SDS011;19390;51.460;5.710;2023-05-29T13:02:47;8.13;;;2.40;;
33022;SDS011;19390;51.460;5.710;2023-05-29T13:05:13;6.38;;;2.10;;
33022;SDS011;19390;51.460;5.710;2023-05-29T13:07:40;5.90;;;2.28;;
33022;SDS011;19390;51.460;5.710;2023-05-29T13:10:07;7.85;;;2.30;;
33022;SDS011;19390;51.460;5.710;2023-05-29T13:12:35;9.98;;;2.47;;
33022;SDS011;19390;51.460;5.710;2023-05-29T13:15:01;9.77;;;2.72;;
33022;SDS011;19390;51.460;5.710;2023-05-29T13:17:27;10.60;;;2.50;;
33022;SDS011;19390;51.460;5.710;2023-05-29T13:19:52;9.13;;;2.53;;
33022;SDS011;19390;51.460;5.710;2023-05-29T13:22:18;7.05;;;2.28;;
33022;SDS011;19390;51.460;5.710;2023-05-29T13:24:45;8.45;;;2.38;;
33022;SDS011;19390;51.460;5.710;2023-05-29T13:27:10;7.57;;;2.17;;
33022;SDS011;19390;51.460;5.710;2023-05-29T13:29:39;9.55;;;2.42;;
33022;SDS011;19390;51.460;5.710;2023-05-29T13:32:05;10.20;;;2.47;;
33022;SDS011;19390;51.460;5.710;2023-05-29T13:34:31;10.13;;;3.00;;
33022;SDS011;19390;51.460;5.710;2023-05-29T13:36:57;8.43;;;2.10;;
33022;SDS011;19390;51.460;5.710;2023-05-29T13:39:23;9.93;;;2.78;;
33022;SDS011;19390;51.460;5.710;2023-05-29T13:41:49;6.65;;;2.60;;
33022;SDS011;19390;51.460;5.710;2023-05-29T13:44:15;6.72;;;2.40;;
33022;SDS011;19390;51.460;5.710;2023-05-29T13:46:41;8.68;;;2.10;;
33022;SDS011;19390;51.460;5.710;2023-05-29T13:49:07;9.70;;;2.45;;
33022;SDS011;19390;51.460;5.710;2023-05-29T13:51:32;7.35;;;2.10;;
33022;SDS011;19390;51.460;5.710;2023-05-29T13:53:59;9.13;;;2.47;;
33022;SDS011;19390;51.460;5.710;2023-05-29T13:56:24;9.18;;;2.42;;
33022;SDS011;19390;51.460;5.710;2023-05-29T13:58:52;6.80;;;2.00;;
33022;SDS011;19390;51.460;5.710;2023-05-29T14:01:17;9.88;;;2.50;;
33022;SDS011;19390;51.460;5.710;2023-05-29T14:03:44;8.40;;;2.85;;
33022;SDS011;19390;51.460;5.710;2023-05-29T14:06:10;10.00;;;2.63;;
33022;SDS011;19390;51.460;5.710;2023-05-29T14:08:36;8.70;;;2.90;;
33022;SDS011;19390;51.460;5.710;2023-05-29T14:11:02;7.70;;;2.10;;
33022;SDS011;19390;51.460;5.710;2023-05-29T14:13:28;8.63;;;2.45;;
33022;SDS011;19390;51.460;5.710;2023-05-29T14:15:54;6.82;;;2.60;;
33022;SDS011;19390;51.460;5.710;2023-05-29T14:18:21;6.50;;;2.40;;
33022;SDS011;19390;51.460;5.710;2023-05-29T14:20:47;10.05;;;2.33;;
33022;SDS011;19390;51.460;5.710;2023-05-29T14:23:14;8.57;;;2.55;;
33022;SDS011;19390;51.460;5.710;2023-05-29T14:25:41;11.77;;;3.03;;
33022;SDS011;19390;51.460;5.710;2023-05-29T14:28:07;10.55;;;2.70;;
33022;SDS011;19390;51.460;5.710;2023-05-29T14:30:33;10.45;;;2.60;;
33022;SDS011;19390;51.460;5.710;2023-05-29T14:32:59;12.77;;;3.00;;
33022;SDS011;19390;51.460;5.710;2023-05-29T14:35:25;8.40;;;2.45;;
33022;SDS011;19390;51.460;5.710;2023-05-29T14:37:50;9.95;;;3.20;;
33022;SDS011;19390;51.460;5.710;2023-05-29T14:40:16;7.97;;;2.33;;
33022;SDS011;19390;51.460;5.710;2023-05-29T14:42:42;8.70;;;2.55;;
33022;SDS011;19390;51.460;5.710;2023-05-29T14:45:08;12.60;;;2.63;;
33022;SDS011;19390;51.460;5.710;2023-05-29T14:47:34;15.38;;;3.03;;
33022;SDS011;19390;51.460;5.710;2023-05-29T14:50:00;11.60;;;2.40;;
33022;SDS011;19390;51.460;5.710;2023-05-29T14:52:26;11.93;;;3.38;;
33022;SDS011;19390;51.460;5.710;2023-05-29T14:54:51;9.48;;;2.60;;
33022;SDS011;19390;51.460;5.710;2023-05-29T14:57:17;8.63;;;2.63;;
33022;SDS011;19390;51.460;5.710;2023-05-29T14:59:43;10.23;;;2.42;;
33022;SDS011;19390;51.460;5.710;2023-05-29T15:02:08;11.10;;;2.70;;
33022;SDS011;19390;51.460;5.710;2023-05-29T15:04:34;8.10;;;2.75;;
33022;SDS011;19390;51.460;5.710;2023-05-29T15:07:00;12.85;;;3.00;;
33022;SDS011;19390;51.460;5.710;2023-05-29T15:09:27;12.13;;;2.65;;
33022;SDS011;19390;51.460;5.710;2023-05-29T15:11:52;11.10;;;2.42;;